sensor_id;sensor_type;location;lat;lon;timestamp;pressure;altitude;pressure_sealevel;temperature;humidity
31062;BME280;17724;53.546;9.974;2023-05-20T00:01:57;102727.53;;;13.35;47.64
31062;BME280;17724;53.546;9.974;2023-05-20T00:05:58;102720.63;;;13.25;48.31
31062;BME280;17724;53.546;9.974;2023-05-20T00:09:58;102724.25;;;13.26;48.56
31062;BME280;17724;53.546;9.974;2023-05-20T00:13:59;102720.63;;;13.25;48.37
31062;BME280;17724;53.546;9.974;2023-05-20T00:18:00;102729.69;;;13.33;48.40
31062;BME280;17724;53.546;9.974;2023-05-20T00:22:01;102737.69;;;13.41;48.45
31062;BME280;17724;53.546;9.974;2023-05-20T00:26:02;102737.13;;;13.32;48.36
31062;BME280;17724;53.546;9.974;2023-05-20T00:30:03;102726.94;;;13.33;48.28
31062;BME280;17724;53.546;9.974;2023-05-20T00:34:04;102733.91;;;13.35;48.52
31062;BME280;17724;53.546;9.974;2023-05-20T00:38:05;102740.25;;;13.17;48.95
31062;BME280;17724;53.546;9.974;2023-05-20T00:42:05;102735.31;;;13.19;48.63
31062;BME280;17724;53.546;9.974;2023-05-20T00:46:06;102722.50;;;13.06;49.15
31062;BME280;17724;53.546;9.974;2023-05-20T00:50:08;102729.66;;;13.14;48.68
31062;BME280;17724;53.546;9.974;2023-05-20T00:54:09;102725.19;;;13.13;49.00
31062;BME280;17724;53.546;9.974;2023-05-20T00:58:10;102716.78;;;13.26;48.75
31062;BME280;17724;53.546;9.974;2023-05-20T01:02:11;102721.28;;;13.21;48.94
31062;BME280;17724;53.546;9.974;2023-05-20T01:06:12;102718.53;;;13.21;48.63
31062;BME280;17724;53.546;9.974;2023-05-20T01:10:12;102724.13;;;13.14;49.20
31062;BME280;17724;53.546;9.974;2023-05-20T01:14:15;102722.59;;;13.18;49.13
31062;BME280;17724;53.546;9.974;2023-05-20T01:18:18;102717.97;;;13.12;49.35
31062;BME280;17724;53.546;9.974;2023-05-20T01:22:25;102717.34;;;13.10;49.71
31062;BME280;17724;53.546;9.974;2023-05-20T01:26:26;102714.50;;;12.98;49.67
31062;BME280;17724;53.546;9.974;2023-05-20T01:30:29;102710.91;;;12.98;49.82
31062;BME280;17724;53.546;9.974;2023-05-20T01:34:33;102716.34;;;13.04;49.95
31062;BME280;17724;53.546;9.974;2023-05-20T01:38:35;102710.81;;;13.04;49.97
31062;BME280;17724;53.546;9.974;2023-05-20T01:42:37;102720.31;;;12.90;50.42
31062;BME280;17724;53.546;9.974;2023-05-20T01:46:39;102715.09;;;13.00;50.18
31062;BME280;17724;53.546;9.974;2023-05-20T01:50:39;102717.94;;;12.94;50.91
31062;BME280;17724;53.546;9.974;2023-05-20T01:54:40;102715.69;;;12.84;50.89
31062;BME280;17724;53.546;9.974;2023-05-20T01:58:41;102714.47;;;12.80;51.37
31062;BME280;17724;53.546;9.974;2023-05-20T02:02:41;102711.19;;;12.90;51.25
31062;BME280;17724;53.546;9.974;2023-05-20T02:06:44;102714.16;;;12.88;51.66
31062;BME280;17724;53.546;9.974;2023-05-20T02:10:47;102717.00;;;12.81;51.61
31062;BME280;17724;53.546;9.974;2023-05-20T02:14:48;102701.03;;;12.83;52.09
31062;BME280;17724;53.546;9.974;2023-05-20T02:18:49;102709.28;;;12.90;52.24
31062;BME280;17724;53.546;9.974;2023-05-20T02:22:52;102701.78;;;12.72;54.07
31062;BME280;17724;53.546;9.974;2023-05-20T02:26:52;102694.06;;;12.81;55.40
31062;BME280;17724;53.546;9.974;2023-05-20T02:30:54;102693.56;;;12.66;57.29
31062;BME280;17724;53.546;9.974;2023-05-20T02:34:55;102691.53;;;12.54;59.34
31062;BME280;17724;53.546;9.974;2023-05-20T02:38:55;102689.63;;;12.55;60.89
31062;BME280;17724;53.546;9.974;2023-05-20T02:42:57;102687.44;;;12.39;63.45
31062;BME280;17724;53.546;9.974;2023-05-20T02:46:58;102683.50;;;12.53;63.61
31062;BME280;17724;53.546;9.974;2023-05-20T02:51:01;102682.47;;;12.47;64.64
31062;BME280;17724;53.546;9.974;2023-05-20T02:55:01;102681.88;;;12.45;64.99
31062;BME280;17724;53.546;9.974;2023-05-20T02:59:04;102684.56;;;12.52;65.20
31062;BME280;17724;53.546;9.974;2023-05-20T03:03:06;102678.28;;;12.45;66.09
31062;BME280;17724;53.546;9.974;2023-05-20T03:07:07;102693.56;;;12.41;66.89
31062;BME280;17724;53.546;9.974;2023-05-20T03:11:08;102697.00;;;12.36;67.71
31062;BME280;17724;53.546;9.974;2023-05-20T03:15:09;102711.75;;;12.48;67.51
31062;BME280;17724;53.546;9.974;2023-05-20T03:19:10;102690.22;;;12.07;69.62
31062;BME280;17724;53.546;9.974;2023-05-20T03:23:11;102695.91;;;12.12;70.52
31062;BME280;17724;53.546;9.974;2023-05-20T03:27:12;102691.28;;;12.06;70.38
31062;BME280;17724;53.546;9.974;2023-05-20T03:31:13;102692.66;;;12.22;70.33
31062;BME280;17724;53.546;9.974;2023-05-20T03:35:13;102695.16;;;12.30;70.47
31062;BME280;17724;53.546;9.974;2023-05-20T03:39:14;102698.09;;;12.28;71.02
31062;BME280;17724;53.546;9.974;2023-05-20T03:43:15;102693.81;;;12.07;72.03
31062;BME280;17724;53.546;9.974;2023-05-20T03:47:15;102682.75;;;12.14;72.31
31062;BME280;17724;53.546;9.974;2023-05-20T03:51:16;102686.75;;;12.18;72.69
31062;BME280;17724;53.546;9.974;2023-05-20T03:55:17;102686.91;;;12.23;73.26
31062;BME280;17724;53.546;9.974;2023-05-20T03:59:20;102693.84;;;12.32;72.83
31062;BME280;17724;53.546;9.974;2023-05-20T04:03:21;102683.41;;;12.10;74.32
31062;BME280;17724;53.546;9.974;2023-05-20T04:07:22;102694.38;;;12.16;75.10
31062;BME280;17724;53.546;9.974;2023-05-20T04:11:23;102700.53;;;12.18;75.36
31062;BME280;17724;53.546;9.974;2023-05-20T04:15:24;102698.31;;;12.33;75.49
31062;BME280;17724;53.546;9.974;2023-05-20T04:19:28;102694.44;;;12.41;75.49
31062;BME280;17724;53.546;9.974;2023-05-20T04:23:29;102710.91;;;12.48;75.77
31062;BME280;17724;53.546;9.974;2023-05-20T04:27:29;102707.91;;;12.24;77.04
31062;BME280;17724;53.546;9.974;2023-05-20T04:31:33;102708.03;;;12.36;77.42
31062;BME280;17724;53.546;9.974;2023-05-20T04:35:34;102705.38;;;12.48;77.27
31062;BME280;17724;53.546;9.974;2023-05-20T04:39:38;102696.59;;;12.32;78.47
31062;BME280;17724;53.546;9.974;2023-05-20T04:43:40;102697.41;;;12.40;78.76
31062;BME280;17724;53.546;9.974;2023-05-20T04:47:41;102683.38;;;12.41;79.06
31062;BME280;17724;53.546;9.974;2023-05-20T04:51:43;102694.88;;;12.38;79.79
31062;BME280;17724;53.546;9.974;2023-05-20T04:55:45;102689.81;;;12.28;80.60
31062;BME280;17724;53.546;9.974;2023-05-20T04:59:46;102692.72;;;12.40;80.79
31062;BME280;17724;53.546;9.974;2023-05-20T05:03:47;102704.59;;;12.41;81.14
31062;BME280;17724;53.546;9.974;2023-05-20T05:07:48;102700.09;;;12.46;81.47
31062;BME280;17724;53.546;9.974;2023-05-20T05:11:51;102693.50;;;12.47;81.34
31062;BME280;17724;53.546;9.974;2023-05-20T05:15:59;102695.38;;;12.53;81.50
31062;BME280;17724;53.546;9.974;2023-05-20T05:20:01;102697.66;;;12.56;81.37
31062;BME280;17724;53.546;9.974;2023-05-20T05:24:05;102684.09;;;12.55;81.27
31062;BME280;17724;53.546;9.974;2023-05-20T05:28:06;102696.34;;;12.66;81.52
31062;BME280;17724;53.546;9.974;2023-05-20T05:32:06;102709.03;;;12.92;80.82
31062;BME280;17724;53.546;9.974;2023-05-20T05:36:07;102707.13;;;12.92;80.40
31062;BME280;17724;53.546;9.974;2023-05-20T05:40:08;102699.81;;;12.79;80.92
31062;BME280;17724;53.546;9.974;2023-05-20T05:44:08;102702.91;;;13.08;79.76
31062;BME280;17724;53.546;9.974;2023-05-20T05:48:09;102701.78;;;13.16;79.26
31062;BME280;17724;53.546;9.974;2023-05-20T05:52:11;102707.69;;;13.19;78.63
31062;BME280;17724;53.546;9.974;2023-05-20T05:56:13;102712.94;;;13.27;78.70
31062;BME280;17724;53.546;9.974;2023-05-20T06:00:14;102709.66;;;13.37;78.28
31062;BME280;17724;53.546;9.974;2023-05-20T06:04:20;102708.56;;;13.57;77.58
31062;BME280;17724;53.546;9.974;2023-05-20T06:08:22;102699.34;;;13.63;77.22
31062;BME280;17724;53.546;9.974;2023-05-20T06:12:22;102706.09;;;13.67;76.92
31062;BME280;17724;53.546;9.974;2023-05-20T06:16:23;102706.47;;;13.70;76.70
31062;BME280;17724;53.546;9.974;2023-05-20T06:20:25;102706.19;;;13.90;76.08
31062;BME280;17724;53.546;9.974;2023-05-20T06:24:25;102696.47;;;13.99;75.71
31062;BME280;17724;53.546;9.974;2023-05-20T06:28:26;102687.88;;;14.19;74.83
31062;BME280;17724;53.546;9.974;2023-05-20T06:32:27;102683.84;;;14.34;74.18
31062;BME280;17724;53.546;9.974;2023-05-20T06:36:29;102677.47;;;14.33;73.99
31062;BME280;17724;53.546;9.974;2023-05-20T06:40:30;102692.72;;;14.36;74.30
31062;BME280;17724;53.546;9.974;2023-05-20T06:44:31;102691.84;;;14.53;74.02
31062;BME280;17724;53.546;9.974;2023-05-20T06:48:34;102669.81;;;14.59;73.50
31062;BME280;17724;53.546;9.974;2023-05-20T06:52:35;102680.41;;;14.97;72.11
31062;BME280;17724;53.546;9.974;2023-05-20T06:56:36;102670.16;;;15.21;70.95
31062;BME280;17724;53.546;9.974;2023-05-20T07:00:36;102664.81;;;15.19;70.24
31062;BME280;17724;53.546;9.974;2023-05-20T07:04:38;102664.38;;;15.51;69.18
31062;BME280;17724;53.546;9.974;2023-05-20T07:08:39;102659.28;;;15.60;67.91
31062;BME280;17724;53.546;9.974;2023-05-20T07:12:41;102655.03;;;15.40;68.70
31062;BME280;17724;53.546;9.974;2023-05-20T07:16:41;102660.28;;;15.65;68.01
31062;BME280;17724;53.546;9.974;2023-05-20T07:20:43;102664.72;;;15.95;66.18
31062;BME280;17724;53.546;9.974;2023-05-20T07:24:52;102667.91;;;16.04;65.32
31062;BME280;17724;53.546;9.974;2023-05-20T07:28:53;102664.09;;;16.21;63.68
31062;BME280;17724;53.546;9.974;2023-05-20T07:32:54;102671.38;;;16.11;64.05
31062;BME280;17724;53.546;9.974;2023-05-20T07:36:56;102666.78;;;16.16;63.31
31062;BME280;17724;53.546;9.974;2023-05-20T07:40:57;102661.94;;;16.40;63.04
31062;BME280;17724;53.546;9.974;2023-05-20T07:44:58;102654.94;;;16.38;62.62
31062;BME280;17724;53.546;9.974;2023-05-20T07:48:58;102656.59;;;16.39;62.50
31062;BME280;17724;53.546;9.974;2023-05-20T07:52:59;102647.75;;;16.59;61.55
31062;BME280;17724;53.546;9.974;2023-05-20T07:57:02;102645.69;;;16.32;62.58
31062;BME280;17724;53.546;9.974;2023-05-20T08:01:05;102649.63;;;16.53;62.39
31062;BME280;17724;53.546;9.974;2023-05-20T08:05:07;102643.75;;;16.33;61.19
31062;BME280;17724;53.546;9.974;2023-05-20T08:09:08;102651.03;;;16.39;61.46
31062;BME280;17724;53.546;9.974;2023-05-20T08:13:14;102646.09;;;16.74;59.26
31062;BME280;17724;53.546;9.974;2023-05-20T08:17:15;102649.38;;;16.88;59.39
31062;BME280;17724;53.546;9.974;2023-05-20T08:21:16;102642.75;;;16.94;57.10
31062;BME280;17724;53.546;9.974;2023-05-20T08:25:17;102634.25;;;17.23;56.74
31062;BME280;17724;53.546;9.974;2023-05-20T08:29:19;102643.47;;;17.51;54.65
31062;BME280;17724;53.546;9.974;2023-05-20T08:33:20;102641.53;;;17.51;54.12
31062;BME280;17724;53.546;9.974;2023-05-20T08:37:21;102635.22;;;17.56;53.73
31062;BME280;17724;53.546;9.974;2023-05-20T08:41:22;102628.41;;;17.68;53.40
31062;BME280;17724;53.546;9.974;2023-05-20T08:45:24;102627.44;;;17.58;52.48
31062;BME280;17724;53.546;9.974;2023-05-20T08:49:30;102618.34;;;17.89;51.95
31062;BME280;17724;53.546;9.974;2023-05-20T08:53:31;102619.75;;;17.92;50.78
31062;BME280;17724;53.546;9.974;2023-05-20T08:57:32;102604.78;;;17.98;50.03
31062;BME280;17724;53.546;9.974;2023-05-20T09:01:38;102623.16;;;17.99;50.22
31062;BME280;17724;53.546;9.974;2023-05-20T09:05:40;102615.50;;;17.62;51.09
31062;BME280;17724;53.546;9.974;2023-05-20T09:09:41;102611.63;;;17.85;50.52
31062;BME280;17724;53.546;9.974;2023-05-20T09:13:42;102607.63;;;18.40;49.42
31062;BME280;17724;53.546;9.974;2023-05-20T09:17:42;102608.03;;;18.22;48.91
31062;BME280;17724;53.546;9.974;2023-05-20T09:21:45;102612.75;;;18.16;49.76
31062;BME280;17724;53.546;9.974;2023-05-20T09:25:49;102594.13;;;18.22;48.71
31062;BME280;17724;53.546;9.974;2023-05-20T09:29:52;102595.25;;;18.63;48.25
31062;BME280;17724;53.546;9.974;2023-05-20T09:33:54;102583.47;;;18.51;48.35
31062;BME280;17724;53.546;9.974;2023-05-20T09:37:56;102589.41;;;18.65;47.75
31062;BME280;17724;53.546;9.974;2023-05-20T09:42:03;102593.28;;;18.21;48.19
31062;BME280;17724;53.546;9.974;2023-05-20T09:46:06;102578.78;;;18.19;48.56
31062;BME280;17724;53.546;9.974;2023-05-20T09:50:07;102570.28;;;18.36;49.01
31062;BME280;17724;53.546;9.974;2023-05-20T09:54:10;102575.56;;;18.38;48.57
31062;BME280;17724;53.546;9.974;2023-05-20T09:58:12;102578.09;;;17.75;48.60
31062;BME280;17724;53.546;9.974;2023-05-20T10:02:13;102589.94;;;17.38;49.92
31062;BME280;17724;53.546;9.974;2023-05-20T10:15:03;102569.81;;;17.31;50.41
31062;BME280;17724;53.546;9.974;2023-05-20T10:19:28;102569.97;;;17.19;50.32
31062;BME280;17724;53.546;9.974;2023-05-20T10:23:30;102548.72;;;16.86;51.24
31062;BME280;17724;53.546;9.974;2023-05-20T10:27:41;102548.16;;;16.84;51.75
31062;BME280;17724;53.546;9.974;2023-05-20T10:31:49;102553.31;;;16.97;51.67
31062;BME280;17724;53.546;9.974;2023-05-20T10:35:51;102549.00;;;17.34;51.19
31062;BME280;17724;53.546;9.974;2023-05-20T10:39:52;102545.19;;;17.40;51.42
31062;BME280;17724;53.546;9.974;2023-05-20T10:44:05;102534.75;;;17.03;51.47
31062;BME280;17724;53.546;9.974;2023-05-20T10:48:06;102537.34;;;17.10;51.93
31062;BME280;17724;53.546;9.974;2023-05-20T10:52:08;102540.09;;;17.32;51.40
31062;BME280;17724;53.546;9.974;2023-05-20T10:56:17;102542.56;;;17.28;51.87
31062;BME280;17724;53.546;9.974;2023-05-20T11:00:17;102532.22;;;17.23;51.85
31062;BME280;17724;53.546;9.974;2023-05-20T11:04:21;102530.09;;;17.09;51.93
31062;BME280;17724;53.546;9.974;2023-05-20T11:08:28;102526.44;;;17.30;51.97
31062;BME280;17724;53.546;9.974;2023-05-20T11:12:29;102514.44;;;17.52;51.14
31062;BME280;17724;53.546;9.974;2023-05-20T11:16:29;102517.91;;;17.37;51.73
31062;BME280;17724;53.546;9.974;2023-05-20T11:20:30;102529.53;;;17.34;51.31
31062;BME280;17724;53.546;9.974;2023-05-20T11:24:34;102505.03;;;17.31;51.18
31062;BME280;17724;53.546;9.974;2023-05-20T11:28:35;102511.56;;;17.46;51.33
31062;BME280;17724;53.546;9.974;2023-05-20T11:32:35;102483.16;;;17.12;51.08
31062;BME280;17724;53.546;9.974;2023-05-20T11:36:41;102497.16;;;17.22;51.53
31062;BME280;17724;53.546;9.974;2023-05-20T11:40:43;102501.31;;;17.20;51.65
31062;BME280;17724;53.546;9.974;2023-05-20T11:44:45;102496.16;;;17.07;51.66
31062;BME280;17724;53.546;9.974;2023-05-20T11:48:54;102517.91;;;17.15;51.75
31062;BME280;17724;53.546;9.974;2023-05-20T11:52:58;102496.47;;;17.10;51.75
31062;BME280;17724;53.546;9.974;2023-05-20T11:56:59;102506.56;;;16.94;52.62
31062;BME280;17724;53.546;9.974;2023-05-20T12:01:00;102504.50;;;17.07;52.67
31062;BME280;17724;53.546;9.974;2023-05-20T12:05:01;102503.41;;;16.86;53.20
31062;BME280;17724;53.546;9.974;2023-05-20T12:09:03;102487.63;;;17.13;52.45
31062;BME280;17724;53.546;9.974;2023-05-20T12:13:07;102492.34;;;17.13;52.40
31062;BME280;17724;53.546;9.974;2023-05-20T12:17:08;102491.44;;;17.34;52.11
31062;BME280;17724;53.546;9.974;2023-05-20T12:21:09;102491.84;;;16.94;53.01
31062;BME280;17724;53.546;9.974;2023-05-20T12:25:14;102491.97;;;16.82;53.23
31062;BME280;17724;53.546;9.974;2023-05-20T12:29:14;102479.59;;;17.17;53.09
31062;BME280;17724;53.546;9.974;2023-05-20T12:33:15;102477.22;;;17.31;52.97
31062;BME280;17724;53.546;9.974;2023-05-20T12:37:15;102477.66;;;17.44;52.79
31062;BME280;17724;53.546;9.974;2023-05-20T12:41:16;102478.81;;;17.54;52.48
31062;BME280;17724;53.546;9.974;2023-05-20T12:45:17;102472.50;;;17.63;51.77
31062;BME280;17724;53.546;9.974;2023-05-20T12:49:17;102487.13;;;17.48;51.60
31062;BME280;17724;53.546;9.974;2023-05-20T12:53:18;102459.22;;;17.11;52.88
31062;BME280;17724;53.546;9.974;2023-05-20T12:57:18;102455.56;;;17.06;53.56
31062;BME280;17724;53.546;9.974;2023-05-20T13:01:19;102462.94;;;17.22;53.63
31062;BME280;17724;53.546;9.974;2023-05-20T13:05:20;102457.81;;;17.36;53.03
31062;BME280;17724;53.546;9.974;2023-05-20T13:09:21;102450.97;;;17.81;52.23
31062;BME280;17724;53.546;9.974;2023-05-20T13:13:22;102445.41;;;17.48;51.70
31062;BME280;17724;53.546;9.974;2023-05-20T13:17:23;102439.56;;;17.50;51.88
31062;BME280;17724;53.546;9.974;2023-05-20T13:21:23;102433.00;;;17.61;51.95
31062;BME280;17724;53.546;9.974;2023-05-20T13:25:24;102432.88;;;17.78;51.80
31062;BME280;17724;53.546;9.974;2023-05-20T13:29:25;102428.28;;;17.67;51.96
31062;BME280;17724;53.546;9.974;2023-05-20T13:33:25;102424.63;;;17.56;51.86
31062;BME280;17724;53.546;9.974;2023-05-20T13:37:26;102419.78;;;17.46;52.47
31062;BME280;17724;53.546;9.974;2023-05-20T13:41:26;102422.84;;;17.45;52.91
31062;BME280;17724;53.546;9.974;2023-05-20T13:45:27;102414.78;;;17.43;52.77
31062;BME280;17724;53.546;9.974;2023-05-20T13:49:29;102406.06;;;17.35;53.39
31062;BME280;17724;53.546;9.974;2023-05-20T13:53:29;102401.31;;;17.35;53.66
31062;BME280;17724;53.546;9.974;2023-05-20T13:57:30;102397.50;;;17.41;53.80
31062;BME280;17724;53.546;9.974;2023-05-20T14:01:30;102395.31;;;17.76;53.46
31062;BME280;17724;53.546;9.974;2023-05-20T14:05:35;102400.44;;;17.62;53.37
31062;BME280;17724;53.546;9.974;2023-05-20T14:09:35;102398.00;;;17.33;53.51
31062;BME280;17724;53.546;9.974;2023-05-20T14:13:36;102391.72;;;17.48;53.46
31062;BME280;17724;53.546;9.974;2023-05-20T14:17:36;102381.94;;;17.40;53.89
31062;BME280;17724;53.546;9.974;2023-05-20T14:21:37;102382.03;;;17.56;53.71
31062;BME280;17724;53.546;9.974;2023-05-20T14:25:38;102376.72;;;17.54;53.78
31062;BME280;17724;53.546;9.974;2023-05-20T14:29:39;102367.66;;;17.69;53.61
31062;BME280;17724;53.546;9.974;2023-05-20T14:33:39;102360.47;;;17.73;53.89
31062;BME280;17724;53.546;9.974;2023-05-20T14:37:40;102348.16;;;17.64;53.97
31062;BME280;17724;53.546;9.974;2023-05-20T14:41:40;102347.56;;;17.62;54.46
31062;BME280;17724;53.546;9.974;2023-05-20T14:45:41;102344.03;;;17.34;55.42
31062;BME280;17724;53.546;9.974;2023-05-20T14:49:41;102340.50;;;17.44;56.13
31062;BME280;17724;53.546;9.974;2023-05-20T14:53:43;102338.78;;;17.38;55.79
31062;BME280;17724;53.546;9.974;2023-05-20T14:57:44;102334.91;;;17.39;56.53
31062;BME280;17724;53.546;9.974;2023-05-20T15:01:45;102326.72;;;17.22;56.84
31062;BME280;17724;53.546;9.974;2023-05-20T15:05:45;102329.28;;;17.29;57.20
31062;BME280;17724;53.546;9.974;2023-05-20T15:09:46;102319.44;;;17.16;57.93
31062;BME280;17724;53.546;9.974;2023-05-20T15:13:46;102320.13;;;17.33;60.88
31062;BME280;17724;53.546;9.974;2023-05-20T15:17:47;102325.81;;;17.54;62.01
31062;BME280;17724;53.546;9.974;2023-05-20T15:21:48;102329.47;;;17.59;62.74
31062;BME280;17724;53.546;9.974;2023-05-20T15:25:51;102325.44;;;17.77;62.68
31062;BME280;17724;53.546;9.974;2023-05-20T15:29:51;102315.41;;;17.34;62.06
31062;BME280;17724;53.546;9.974;2023-05-20T15:33:52;102299.13;;;17.15;62.84
31062;BME280;17724;53.546;9.974;2023-05-20T15:37:53;102307.88;;;17.34;62.45
31062;BME280;17724;53.546;9.974;2023-05-20T15:41:53;102303.78;;;17.05;63.80
31062;BME280;17724;53.546;9.974;2023-05-20T15:45:59;102307.56;;;17.26;63.85
31062;BME280;17724;53.546;9.974;2023-05-20T15:50:00;102301.72;;;17.69;64.30
31062;BME280;17724;53.546;9.974;2023-05-20T15:54:04;102295.59;;;17.67;62.75
31062;BME280;17724;53.546;9.974;2023-05-20T15:58:04;102296.03;;;17.49;64.10
31062;BME280;17724;53.546;9.974;2023-05-20T16:02:06;102284.41;;;17.62;64.51
31062;BME280;17724;53.546;9.974;2023-05-20T16:06:07;102285.31;;;17.68;63.80
31062;BME280;17724;53.546;9.974;2023-05-20T16:10:09;102285.53;;;17.61;64.48
31062;BME280;17724;53.546;9.974;2023-05-20T16:14:10;102285.66;;;17.82;63.88
31062;BME280;17724;53.546;9.974;2023-05-20T16:18:11;102284.63;;;17.51;63.83
31062;BME280;17724;53.546;9.974;2023-05-20T16:22:11;102280.34;;;17.33;64.69
31062;BME280;17724;53.546;9.974;2023-05-20T16:26:13;102280.19;;;17.49;65.30
31062;BME280;17724;53.546;9.974;2023-05-20T16:30:13;102273.88;;;17.69;66.14
31062;BME280;17724;53.546;9.974;2023-05-20T16:34:14;102278.72;;;17.84;65.74
31062;BME280;17724;53.546;9.974;2023-05-20T16:38:17;102269.44;;;17.68;65.18
31062;BME280;17724;53.546;9.974;2023-05-20T16:42:20;102269.69;;;17.62;65.43
31062;BME280;17724;53.546;9.974;2023-05-20T16:46:20;102268.81;;;17.56;67.90
31062;BME280;17724;53.546;9.974;2023-05-20T16:50:21;102263.72;;;17.43;65.68
31062;BME280;17724;53.546;9.974;2023-05-20T16:54:22;102266.84;;;17.52;66.03
31062;BME280;17724;53.546;9.974;2023-05-20T16:58:23;102265.84;;;17.73;67.09
31062;BME280;17724;53.546;9.974;2023-05-20T17:02:23;102262.66;;;17.49;65.24
31062;BME280;17724;53.546;9.974;2023-05-20T17:06:24;102256.38;;;17.21;65.98
31062;BME280;17724;53.546;9.974;2023-05-20T17:10:25;102260.50;;;17.19;67.33
31062;BME280;17724;53.546;9.974;2023-05-20T17:14:28;102258.88;;;17.23;66.84
31062;BME280;17724;53.546;9.974;2023-05-20T17:18:28;102259.47;;;17.30;66.90
31062;BME280;17724;53.546;9.974;2023-05-20T17:22:29;102261.41;;;17.24;67.94
31062;BME280;17724;53.546;9.974;2023-05-20T17:26:29;102262.78;;;17.27;67.48
31062;BME280;17724;53.546;9.974;2023-05-20T17:30:30;102264.50;;;17.33;67.38
31062;BME280;17724;53.546;9.974;2023-05-20T17:34:31;102258.38;;;17.31;67.51
31062;BME280;17724;53.546;9.974;2023-05-20T17:38:32;102259.06;;;17.11;68.37
31062;BME280;17724;53.546;9.974;2023-05-20T17:42:33;102249.22;;;16.93;69.26
31062;BME280;17724;53.546;9.974;2023-05-20T17:46:33;102243.97;;;16.97;69.05
31062;BME280;17724;53.546;9.974;2023-05-20T17:50:34;102249.53;;;16.97;69.17
31062;BME280;17724;53.546;9.974;2023-05-20T17:54:34;102250.94;;;16.99;68.87
31062;BME280;17724;53.546;9.974;2023-05-20T17:58:35;102248.81;;;17.12;68.07
31062;BME280;17724;53.546;9.974;2023-05-20T18:02:35;102243.03;;;16.86;68.62
31062;BME280;17724;53.546;9.974;2023-05-20T18:06:38;102240.75;;;16.78;69.36
31062;BME280;17724;53.546;9.974;2023-05-20T18:10:38;102240.88;;;16.93;69.08
31062;BME280;17724;53.546;9.974;2023-05-20T18:14:39;102244.03;;;17.07;68.60
31062;BME280;17724;53.546;9.974;2023-05-20T18:18:39;102223.34;;;16.88;69.02
31062;BME280;17724;53.546;9.974;2023-05-20T18:22:40;102226.19;;;16.98;69.01
31062;BME280;17724;53.546;9.974;2023-05-20T18:26:44;102237.78;;;16.90;69.33
31062;BME280;17724;53.546;9.974;2023-05-20T18:30:45;102218.38;;;16.95;69.28
31062;BME280;17724;53.546;9.974;2023-05-20T18:34:45;102240.22;;;17.18;70.06
31062;BME280;17724;53.546;9.974;2023-05-20T18:38:46;102249.25;;;17.41;69.19
31062;BME280;17724;53.546;9.974;2023-05-20T18:42:46;102244.41;;;17.21;69.67
31062;BME280;17724;53.546;9.974;2023-05-20T18:46:47;102243.56;;;17.20;69.67
31062;BME280;17724;53.546;9.974;2023-05-20T18:50:48;102252.63;;;17.06;69.23
31062;BME280;17724;53.546;9.974;2023-05-20T18:54:49;102252.47;;;17.22;69.34
31062;BME280;17724;53.546;9.974;2023-05-20T18:58:49;102246.59;;;17.19;69.61
31062;BME280;17724;53.546;9.974;2023-05-20T19:02:50;102258.53;;;17.14;69.74
31062;BME280;17724;53.546;9.974;2023-05-20T19:06:51;102255.88;;;17.35;72.00
31062;BME280;17724;53.546;9.974;2023-05-20T19:10:54;102257.09;;;17.49;70.06
31062;BME280;17724;53.546;9.974;2023-05-20T19:14:55;102255.34;;;17.38;70.26
31062;BME280;17724;53.546;9.974;2023-05-20T19:18:56;102252.22;;;17.24;70.70
31062;BME280;17724;53.546;9.974;2023-05-20T19:22:57;102258.56;;;17.19;69.23
31062;BME280;17724;53.546;9.974;2023-05-20T19:26:57;102252.13;;;17.14;70.47
31062;BME280;17724;53.546;9.974;2023-05-20T19:30:58;102262.69;;;17.12;71.01
31062;BME280;17724;53.546;9.974;2023-05-20T19:34:58;102267.34;;;17.01;69.78
31062;BME280;17724;53.546;9.974;2023-05-20T19:38:59;102272.69;;;17.08;71.72
31062;BME280;17724;53.546;9.974;2023-05-20T19:43:00;102265.28;;;17.23;70.86
31062;BME280;17724;53.546;9.974;2023-05-20T19:47:01;102279.63;;;17.10;68.71
31062;BME280;17724;53.546;9.974;2023-05-20T19:51:01;102270.41;;;16.99;69.82
31062;BME280;17724;53.546;9.974;2023-05-20T19:55:02;102271.22;;;17.00;70.42
31062;BME280;17724;53.546;9.974;2023-05-20T19:59:03;102268.06;;;16.91;68.64
31062;BME280;17724;53.546;9.974;2023-05-20T20:03:03;102270.41;;;16.72;67.22
31062;BME280;17724;53.546;9.974;2023-05-20T20:07:06;102267.38;;;16.74;69.24
31062;BME280;17724;53.546;9.974;2023-05-20T20:11:09;102264.22;;;16.92;69.64
31062;BME280;17724;53.546;9.974;2023-05-20T20:15:09;102262.19;;;16.83;68.46
31062;BME280;17724;53.546;9.974;2023-05-20T20:19:10;102274.88;;;16.73;67.44
31062;BME280;17724;53.546;9.974;2023-05-20T20:23:11;102258.56;;;16.55;68.49
31062;BME280;17724;53.546;9.974;2023-05-20T20:27:11;102259.31;;;16.45;68.88
31062;BME280;17724;53.546;9.974;2023-05-20T20:31:12;102262.09;;;16.45;68.86
31062;BME280;17724;53.546;9.974;2023-05-20T20:35:13;102266.31;;;16.26;68.61
31062;BME280;17724;53.546;9.974;2023-05-20T20:39:13;102268.59;;;16.29;69.00
31062;BME280;17724;53.546;9.974;2023-05-20T20:43:24;102274.09;;;16.24;70.13
31062;BME280;17724;53.546;9.974;2023-05-20T20:47:27;102267.09;;;16.21;69.77
31062;BME280;17724;53.546;9.974;2023-05-20T20:51:28;102264.75;;;16.08;70.18
31062;BME280;17724;53.546;9.974;2023-05-20T20:55:29;102265.78;;;16.02;70.55
31062;BME280;17724;53.546;9.974;2023-05-20T20:59:33;102257.97;;;15.99;71.39
31062;BME280;17724;53.546;9.974;2023-05-20T21:03:34;102253.25;;;15.99;71.09
31062;BME280;17724;53.546;9.974;2023-05-20T21:07:36;102251.13;;;15.85;70.78
31062;BME280;17724;53.546;9.974;2023-05-20T21:11:38;102262.19;;;15.63;71.98